sensor_id;sensor_type;location;lat;lon;timestamp;pressure;altitude;pressure_sealevel;temperature;humidity
57234;BME280;43090;52.604;13.318;2022-11-11T00:01:50;102237.19;;;8.87;89.83
57234;BME280;43090;52.604;13.318;2022-11-11T00:04:17;102258.19;;;8.96;89.87
57234;BME280;43090;52.604;13.318;2022-11-11T00:06:45;102248.13;;;9.25;89.47
57234;BME280;43090;52.604;13.318;2022-11-11T00:09:12;102253.34;;;9.06;89.55
57234;BME280;43090;52.604;13.318;2022-11-11T00:11:38;102254.00;;;9.11;89.80
57234;BME280;43090;52.604;13.318;2022-11-11T00:14:05;102268.13;;;9.37;89.49
57234;BME280;43090;52.604;13.318;2022-11-11T00:16:31;102283.03;;;9.21;89.45
57234;BME280;43090;52.604;13.318;2022-11-11T00:19:18;102277.13;;;9.34;89.13
57234;BME280;43090;52.604;13.318;2022-11-11T00:22:03;102298.66;;;9.31;88.44
57234;BME280;43090;52.604;13.318;2022-11-11T00:24:48;102291.25;;;9.16;89.36
57234;BME280;43090;52.604;13.318;2022-11-11T00:27:34;102295.03;;;9.32;89.47
57234;BME280;43090;52.604;13.318;2022-11-11T00:30:01;102310.28;;;9.30;90.01
57234;BME280;43090;52.604;13.318;2022-11-11T00:32:27;102306.97;;;9.24;89.24
57234;BME280;43090;52.604;13.318;2022-11-11T00:34:57;102297.38;;;9.18;90.19
57234;BME280;43090;52.604;13.318;2022-11-11T00:37:44;102268.81;;;8.76;89.96
57234;BME280;43090;52.604;13.318;2022-11-11T00:40:12;102292.22;;;8.91;90.66
57234;BME280;43090;52.604;13.318;2022-11-11T00:42:39;102264.47;;;8.72;90.61
57234;BME280;43090;52.604;13.318;2022-11-11T00:45:06;102304.41;;;8.98;90.45
57234;BME280;43090;52.604;13.318;2022-11-11T00:47:33;102291.94;;;8.75;92.24
57234;BME280;43090;52.604;13.318;2022-11-11T00:50:26;102282.88;;;8.79;92.02
57234;BME280;43090;52.604;13.318;2022-11-11T00:53:22;102289.38;;;8.96;91.75
57234;BME280;43090;52.604;13.318;2022-11-11T00:55:53;102281.03;;;8.81;91.29
57234;BME280;43090;52.604;13.318;2022-11-11T00:58:20;102293.53;;;9.03;92.05
57234;BME280;43090;52.604;13.318;2022-11-11T01:00:49;102264.31;;;8.76;91.58
57234;BME280;43090;52.604;13.318;2022-11-11T01:03:19;102281.81;;;8.83;92.15
57234;BME280;43090;52.604;13.318;2022-11-11T01:05:46;102253.03;;;8.92;91.31
57234;BME280;43090;52.604;13.318;2022-11-11T01:08:13;102227.78;;;8.77;91.63
57234;BME280;43090;52.604;13.318;2022-11-11T01:10:40;102258.44;;;9.12;91.60
57234;BME280;43090;52.604;13.318;2022-11-11T01:13:20;102251.53;;;9.07;92.45
57234;BME280;43090;52.604;13.318;2022-11-11T01:15:49;102254.28;;;9.05;91.77
57234;BME280;43090;52.604;13.318;2022-11-11T01:18:20;102263.41;;;9.22;92.13
57234;BME280;43090;52.604;13.318;2022-11-11T01:20:57;102246.75;;;9.15;92.13
57234;BME280;43090;52.604;13.318;2022-11-11T01:23:25;102257.97;;;9.23;92.44
57234;BME280;43090;52.604;13.318;2022-11-11T01:25:51;102242.09;;;8.98;92.20
57234;BME280;43090;52.604;13.318;2022-11-11T01:28:19;102260.34;;;9.09;91.60
57234;BME280;43090;52.604;13.318;2022-11-11T01:30:46;102246.06;;;9.10;91.18
57234;BME280;43090;52.604;13.318;2022-11-11T01:33:35;102260.72;;;8.99;92.33
57234;BME280;43090;52.604;13.318;2022-11-11T01:36:14;102236.19;;;9.12;91.77
57234;BME280;43090;52.604;13.318;2022-11-11T01:38:41;102273.84;;;9.28;91.55
57234;BME280;43090;52.604;13.318;2022-11-11T01:41:14;102231.16;;;9.04;91.30
57234;BME280;43090;52.604;13.318;2022-11-11T01:44:00;102245.34;;;9.06;91.14
57234;BME280;43090;52.604;13.318;2022-11-11T01:46:28;102261.63;;;9.22;90.84
57234;BME280;43090;52.604;13.318;2022-11-11T01:49:01;102235.06;;;9.17;89.98
57234;BME280;43090;52.604;13.318;2022-11-11T01:51:52;102255.81;;;8.89;90.95
57234;BME280;43090;52.604;13.318;2022-11-11T01:54:29;102271.25;;;9.26;90.04
57234;BME280;43090;52.604;13.318;2022-11-11T01:57:32;102243.28;;;9.13;89.71
57234;BME280;43090;52.604;13.318;2022-11-11T02:00:10;102235.66;;;9.04;89.36
57234;BME280;43090;52.604;13.318;2022-11-11T02:03:07;102231.84;;;8.87;89.85
57234;BME280;43090;52.604;13.318;2022-11-11T02:05:37;102275.72;;;9.04;89.96
57234;BME280;43090;52.604;13.318;2022-11-11T02:08:23;102295.22;;;9.06;90.38
57234;BME280;43090;52.604;13.318;2022-11-11T02:11:01;102289.63;;;9.12;89.57
57234;BME280;43090;52.604;13.318;2022-11-11T02:13:30;102278.03;;;9.13;89.99
57234;BME280;43090;52.604;13.318;2022-11-11T02:16:17;102270.38;;;9.04;89.54
57234;BME280;43090;52.604;13.318;2022-11-11T02:18:44;102268.00;;;8.96;90.29
57234;BME280;43090;52.604;13.318;2022-11-11T02:21:19;102288.66;;;9.14;89.51
57234;BME280;43090;52.604;13.318;2022-11-11T02:24:06;102289.25;;;8.99;89.65
57234;BME280;43090;52.604;13.318;2022-11-11T02:26:35;102306.53;;;9.12;89.43
57234;BME280;43090;52.604;13.318;2022-11-11T02:29:06;102299.03;;;9.22;89.49
57234;BME280;43090;52.604;13.318;2022-11-11T02:31:34;102296.09;;;9.28;89.03
57234;BME280;43090;52.604;13.318;2022-11-11T02:34:01;102309.13;;;9.36;88.93
57234;BME280;43090;52.604;13.318;2022-11-11T02:36:28;102264.69;;;9.33;88.67
57234;BME280;43090;52.604;13.318;2022-11-11T02:38:54;102315.63;;;9.53;87.66
57234;BME280;43090;52.604;13.318;2022-11-11T02:41:21;102270.00;;;9.13;89.77
57234;BME280;43090;52.604;13.318;2022-11-11T02:44:07;102283.34;;;9.35;88.88
57234;BME280;43090;52.604;13.318;2022-11-11T02:46:33;102306.03;;;9.47;88.17
57234;BME280;43090;52.604;13.318;2022-11-11T02:49:00;102302.94;;;9.36;88.82
57234;BME280;43090;52.604;13.318;2022-11-11T02:51:27;102316.22;;;9.59;88.92
57234;BME280;43090;52.604;13.318;2022-11-11T02:53:56;102306.69;;;9.52;87.58
57234;BME280;43090;52.604;13.318;2022-11-11T02:56:26;102304.94;;;9.30;88.83
57234;BME280;43090;52.604;13.318;2022-11-11T02:59:11;102280.28;;;9.44;87.55
57234;BME280;43090;52.604;13.318;2022-11-11T03:01:38;102309.66;;;9.66;86.75
57234;BME280;43090;52.604;13.318;2022-11-11T03:04:05;102271.97;;;9.30;88.79
57234;BME280;43090;52.604;13.318;2022-11-11T03:06:31;102301.34;;;9.52;88.07
57234;BME280;43090;52.604;13.318;2022-11-11T03:08:58;102292.94;;;9.41;88.29
57234;BME280;43090;52.604;13.318;2022-11-11T03:11:25;102301.06;;;9.80;87.10
57234;BME280;43090;52.604;13.318;2022-11-11T03:13:59;102291.19;;;9.60;87.53
57234;BME280;43090;52.604;13.318;2022-11-11T03:16:26;102255.44;;;9.20;87.48
57234;BME280;43090;52.604;13.318;2022-11-11T03:19:11;102299.66;;;9.72;86.70
57234;BME280;43090;52.604;13.318;2022-11-11T03:21:38;102305.31;;;9.64;86.54
57234;BME280;43090;52.604;13.318;2022-11-11T03:24:25;102281.88;;;9.48;86.36
57234;BME280;43090;52.604;13.318;2022-11-11T03:27:12;102293.63;;;9.66;86.57
57234;BME280;43090;52.604;13.318;2022-11-11T03:29:38;102280.41;;;9.63;87.83
57234;BME280;43090;52.604;13.318;2022-11-11T03:32:06;102286.66;;;9.62;86.76
57234;BME280;43090;52.604;13.318;2022-11-11T03:34:33;102263.31;;;9.45;86.06
57234;BME280;43090;52.604;13.318;2022-11-11T03:36:59;102257.38;;;9.16;86.72
57234;BME280;43090;52.604;13.318;2022-11-11T03:39:44;102248.34;;;9.41;86.59
57234;BME280;43090;52.604;13.318;2022-11-11T03:42:11;102214.16;;;9.27;87.76
57234;BME280;43090;52.604;13.318;2022-11-11T03:44:37;102219.78;;;9.42;85.57
57234;BME280;43090;52.604;13.318;2022-11-11T03:47:04;102225.88;;;9.45;85.93
57234;BME280;43090;52.604;13.318;2022-11-11T03:49:30;102219.19;;;9.35;84.85
57234;BME280;43090;52.604;13.318;2022-11-11T03:51:57;102231.88;;;9.30;86.40
57234;BME280;43090;52.604;13.318;2022-11-11T03:54:23;102229.69;;;9.40;85.42
57234;BME280;43090;52.604;13.318;2022-11-11T03:56:50;102229.16;;;9.31;84.58
57234;BME280;43090;52.604;13.318;2022-11-11T03:59:16;102243.16;;;9.37;84.64
57234;BME280;43090;52.604;13.318;2022-11-11T04:01:43;102246.81;;;9.56;84.15
57234;BME280;43090;52.604;13.318;2022-11-11T04:04:28;102260.09;;;9.37;84.88
57234;BME280;43090;52.604;13.318;2022-11-11T04:07:13;102217.34;;;9.15;85.30
57234;BME280;43090;52.604;13.318;2022-11-11T04:09:58;102248.59;;;9.35;84.59
57234;BME280;43090;52.604;13.318;2022-11-11T04:12:43;102252.56;;;9.47;84.31
57234;BME280;43090;52.604;13.318;2022-11-11T04:15:28;102238.84;;;9.55;84.88
57234;BME280;43090;52.604;13.318;2022-11-11T04:18:14;102234.28;;;9.36;84.46
57234;BME280;43090;52.604;13.318;2022-11-11T04:20:42;102220.25;;;9.31;85.11
57234;BME280;43090;52.604;13.318;2022-11-11T04:23:27;102245.50;;;9.46;84.73
57234;BME280;43090;52.604;13.318;2022-11-11T04:25:54;102242.63;;;9.28;84.89
57234;BME280;43090;52.604;13.318;2022-11-11T04:28:22;102227.34;;;9.10;85.38
57234;BME280;43090;52.604;13.318;2022-11-11T04:31:07;102242.00;;;9.22;84.80
57234;BME280;43090;52.604;13.318;2022-11-11T04:33:33;102241.91;;;9.25;84.62
57234;BME280;43090;52.604;13.318;2022-11-11T04:36:03;102235.38;;;9.10;85.63
57234;BME280;43090;52.604;13.318;2022-11-11T04:38:30;102240.25;;;9.43;84.59
57234;BME280;43090;52.604;13.318;2022-11-11T04:41:15;102244.84;;;9.39;85.31
57234;BME280;43090;52.604;13.318;2022-11-11T04:43:41;102252.88;;;9.39;83.75
57234;BME280;43090;52.604;13.318;2022-11-11T04:46:26;102275.69;;;9.48;83.79
57234;BME280;43090;52.604;13.318;2022-11-11T04:48:53;102265.63;;;9.32;83.64
57234;BME280;43090;52.604;13.318;2022-11-11T04:51:20;102258.50;;;9.33;84.40
57234;BME280;43090;52.604;13.318;2022-11-11T04:54:09;102291.47;;;9.54;83.75
57234;BME280;43090;52.604;13.318;2022-11-11T04:56:35;102281.97;;;9.47;83.28
57234;BME280;43090;52.604;13.318;2022-11-11T04:59:15;102293.09;;;9.58;82.85
57234;BME280;43090;52.604;13.318;2022-11-11T05:01:42;102254.53;;;9.42;82.61
57234;BME280;43090;52.604;13.318;2022-11-11T05:04:27;102266.88;;;9.46;84.59
57234;BME280;43090;52.604;13.318;2022-11-11T05:06:53;102268.88;;;9.41;83.12
57234;BME280;43090;52.604;13.318;2022-11-11T05:09:38;102263.94;;;9.30;83.21
57234;BME280;43090;52.604;13.318;2022-11-11T05:12:05;102270.03;;;9.33;84.63
57234;BME280;43090;52.604;13.318;2022-11-11T05:14:32;102264.25;;;9.44;84.00
57234;BME280;43090;52.604;13.318;2022-11-11T05:17:17;102266.81;;;9.25;84.50
57234;BME280;43090;52.604;13.318;2022-11-11T05:20:02;102261.16;;;9.11;85.10
57234;BME280;43090;52.604;13.318;2022-11-11T05:22:47;102247.31;;;9.01;84.98
57234;BME280;43090;52.604;13.318;2022-11-11T05:25:14;102248.44;;;9.17;83.87
57234;BME280;43090;52.604;13.318;2022-11-11T05:27:56;102268.56;;;9.26;85.67
57234;BME280;43090;52.604;13.318;2022-11-11T05:30:24;102306.41;;;9.38;85.22
57234;BME280;43090;52.604;13.318;2022-11-11T05:32:53;102291.00;;;9.22;84.72
57234;BME280;43090;52.604;13.318;2022-11-11T05:35:20;102303.31;;;9.26;84.88
57234;BME280;43090;52.604;13.318;2022-11-11T05:37:47;102295.44;;;8.99;84.81
57234;BME280;43090;52.604;13.318;2022-11-11T05:40:32;102327.31;;;9.28;84.95
57234;BME280;43090;52.604;13.318;2022-11-11T05:42:59;102312.38;;;9.22;84.99
57234;BME280;43090;52.604;13.318;2022-11-11T05:45:26;102310.66;;;9.21;84.64
57234;BME280;43090;52.604;13.318;2022-11-11T05:47:53;102319.59;;;9.20;85.57
57234;BME280;43090;52.604;13.318;2022-11-11T05:50:22;102271.03;;;9.09;85.39
57234;BME280;43090;52.604;13.318;2022-11-11T05:52:48;102297.38;;;9.40;84.00
57234;BME280;43090;52.604;13.318;2022-11-11T05:55:15;102311.34;;;9.26;84.00
57234;BME280;43090;52.604;13.318;2022-11-11T05:58:01;102308.22;;;9.37;83.71
57234;BME280;43090;52.604;13.318;2022-11-11T06:00:41;102301.44;;;9.28;84.33
57234;BME280;43090;52.604;13.318;2022-11-11T06:03:08;102286.94;;;8.90;84.32
57234;BME280;43090;52.604;13.318;2022-11-11T06:05:35;102319.91;;;9.34;84.50
57234;BME280;43090;52.604;13.318;2022-11-11T06:08:02;102316.59;;;9.06;85.46
57234;BME280;43090;52.604;13.318;2022-11-11T06:10:29;102280.91;;;8.84;86.51
57234;BME280;43090;52.604;13.318;2022-11-11T06:12:57;102301.31;;;9.09;84.45
57234;BME280;43090;52.604;13.318;2022-11-11T06:15:37;102307.41;;;9.13;84.60
57234;BME280;43090;52.604;13.318;2022-11-11T06:18:05;102317.34;;;9.09;85.13
57234;BME280;43090;52.604;13.318;2022-11-11T06:20:43;102292.59;;;9.04;85.30
57234;BME280;43090;52.604;13.318;2022-11-11T06:23:12;102282.69;;;9.08;84.07
57234;BME280;43090;52.604;13.318;2022-11-11T06:25:41;102304.91;;;9.08;84.12
57234;BME280;43090;52.604;13.318;2022-11-11T06:28:26;102316.94;;;8.96;84.85
57234;BME280;43090;52.604;13.318;2022-11-11T06:30:55;102317.41;;;9.08;84.47
57234;BME280;43090;52.604;13.318;2022-11-11T06:33:22;102296.88;;;8.86;84.29
57234;BME280;43090;52.604;13.318;2022-11-11T06:36:34;102300.25;;;9.13;84.74
57234;BME280;43090;52.604;13.318;2022-11-11T06:40:00;102303.69;;;9.17;83.82
57234;BME280;43090;52.604;13.318;2022-11-11T06:42:35;102291.09;;;8.97;84.41
57234;BME280;43090;52.604;13.318;2022-11-11T06:45:13;102335.38;;;9.26;84.14
57234;BME280;43090;52.604;13.318;2022-11-11T06:55:21;102320.09;;;9.08;84.39
57234;BME280;43090;52.604;13.318;2022-11-11T07:16:17;102290.00;;;9.03;84.36
57234;BME280;43090;52.604;13.318;2022-11-11T07:28:18;102341.91;;;9.63;82.16
57234;BME280;43090;52.604;13.318;2022-11-11T07:31:14;102346.38;;;9.63;80.97
57234;BME280;43090;52.604;13.318;2022-11-11T07:38:04;102321.63;;;9.58;79.94
57234;BME280;43090;52.604;13.318;2022-11-11T07:40:39;102353.13;;;9.94;80.14
57234;BME280;43090;52.604;13.318;2022-11-11T07:59:05;102385.44;;;10.10;79.08
57234;BME280;43090;52.604;13.318;2022-11-11T08:01:35;102360.81;;;10.02;78.32
57234;BME280;43090;52.604;13.318;2022-11-11T08:04:08;102348.47;;;9.97;78.09
57234;BME280;43090;52.604;13.318;2022-11-11T08:06:44;102343.53;;;9.88;78.04
57234;BME280;43090;52.604;13.318;2022-11-11T08:10:27;102361.38;;;9.88;79.24
57234;BME280;43090;52.604;13.318;2022-11-11T08:13:13;102375.00;;;10.24;78.39
57234;BME280;43090;52.604;13.318;2022-11-11T08:27:32;102380.16;;;10.29;78.28
57234;BME280;43090;52.604;13.318;2022-11-11T08:31:21;102366.69;;;10.10;78.37
57234;BME280;43090;52.604;13.318;2022-11-11T08:33:50;102368.72;;;10.25;78.16
57234;BME280;43090;52.604;13.318;2022-11-11T08:36:29;102391.94;;;10.25;76.78
57234;BME280;43090;52.604;13.318;2022-11-11T08:39:03;102388.28;;;10.48;75.77
57234;BME280;43090;52.604;13.318;2022-11-11T09:16:27;102426.59;;;10.90;73.16
57234;BME280;43090;52.604;13.318;2022-11-11T09:19:37;102445.72;;;10.61;74.26
57234;BME280;43090;52.604;13.318;2022-11-11T09:26:03;102427.28;;;11.14;73.34
57234;BME280;43090;52.604;13.318;2022-11-11T09:28:51;102453.63;;;10.85;73.50
57234;BME280;43090;52.604;13.318;2022-11-11T14:59:17;102421.53;;;11.79;70.16
57234;BME280;43090;52.604;13.318;2022-11-11T15:12:42;102438.53;;;11.60;71.85
57234;BME280;43090;52.604;13.318;2022-11-11T15:49:10;102450.81;;;10.25;79.33
57234;BME280;43090;52.604;13.318;2022-11-11T15:52:38;102453.50;;;10.25;79.39
57234;BME280;43090;52.604;13.318;2022-11-11T15:55:56;102466.72;;;10.29;80.11
57234;BME280;43090;52.604;13.318;2022-11-11T16:00:00;102478.41;;;10.27;80.02
57234;BME280;43090;52.604;13.318;2022-11-11T16:49:38;102451.19;;;8.53;86.83
57234;BME280;43090;52.604;13.318;2022-11-11T17:08:43;102444.06;;;7.99;90.16
57234;BME280;43090;52.604;13.318;2022-11-11T17:28:11;102443.03;;;7.77;92.34
57234;BME280;43090;52.604;13.318;2022-11-11T17:50:16;102479.31;;;7.53;93.72
57234;BME280;43090;52.604;13.318;2022-11-11T17:53:08;102464.09;;;7.56;93.24
57234;BME280;43090;52.604;13.318;2022-11-11T17:59:40;102476.44;;;7.30;93.90
57234;BME280;43090;52.604;13.318;2022-11-11T18:02:19;102473.28;;;7.16;94.82
57234;BME280;43090;52.604;13.318;2022-11-11T18:08:55;102479.78;;;7.37;94.36
57234;BME280;43090;52.604;13.318;2022-11-11T18:11:36;102508.09;;;7.41;93.73
57234;BME280;43090;52.604;13.318;2022-11-11T18:14:03;102481.78;;;7.29;94.14
57234;BME280;43090;52.604;13.318;2022-11-11T18:16:41;102474.78;;;7.26;94.35
57234;BME280;43090;52.604;13.318;2022-11-11T18:20:06;102491.25;;;7.08;94.67
57234;BME280;43090;52.604;13.318;2022-11-11T18:41:33;102496.13;;;6.93;96.30
57234;BME280;43090;52.604;13.318;2022-11-11T18:44:37;102498.84;;;6.90;97.14
57234;BME280;43090;52.604;13.318;2022-11-11T18:47:48;102519.41;;;7.18;96.12
57234;BME280;43090;52.604;13.318;2022-11-11T19:09:53;102569.34;;;7.10;97.11
57234;BME280;43090;52.604;13.318;2022-11-11T19:20:27;102518.66;;;6.45;96.46
57234;BME280;43090;52.604;13.318;2022-11-11T22:00:40;102626.09;;;6.00;98.20
57234;BME280;43090;52.604;13.318;2022-11-11T22:03:14;102594.34;;;5.93;97.53
57234;BME280;43090;52.604;13.318;2022-11-11T22:05:57;102604.94;;;5.94;98.35
57234;BME280;43090;52.604;13.318;2022-11-11T22:08:38;102592.84;;;5.79;98.86
57234;BME280;43090;52.604;13.318;2022-11-11T22:11:16;102625.63;;;5.80;99.47
57234;BME280;43090;52.604;13.318;2022-11-11T22:17:29;102607.88;;;5.80;98.25
57234;BME280;43090;52.604;13.318;2022-11-11T22:19:56;102618.97;;;5.59;98.48
57234;BME280;43090;52.604;13.318;2022-11-11T22:22:29;102655.75;;;5.80;99.71
57234;BME280;43090;52.604;13.318;2022-11-11T22:25:07;102663.69;;;5.82;99.43
57234;BME280;43090;52.604;13.318;2022-11-11T22:27:37;102637.63;;;5.57;99.00
57234;BME280;43090;52.604;13.318;2022-11-11T22:33:51;102608.78;;;5.36;99.29
57234;BME280;43090;52.604;13.318;2022-11-11T22:36:35;102662.94;;;5.75;97.82
57234;BME280;43090;52.604;13.318;2022-11-11T22:54:43;102612.00;;;5.06;99.30
57234;BME280;43090;52.604;13.318;2022-11-11T22:57:47;102621.44;;;5.23;99.58
57234;BME280;43090;52.604;13.318;2022-11-11T23:00:16;102616.19;;;5.18;100.00
57234;BME280;43090;52.604;13.318;2022-11-11T23:02:45;102613.88;;;4.99;99.41
57234;BME280;43090;52.604;13.318;2022-11-11T23:05:12;102627.38;;;5.36;98.46
57234;BME280;43090;52.604;13.318;2022-11-11T23:07:40;102600.56;;;5.01;98.27
57234;BME280;43090;52.604;13.318;2022-11-11T23:10:13;102639.69;;;5.41;99.24
57234;BME280;43090;52.604;13.318;2022-11-11T23:12:47;102633.84;;;5.21;99.52
57234;BME280;43090;52.604;13.318;2022-11-11T23:15:24;102620.84;;;5.05;99.42
57234;BME280;43090;52.604;13.318;2022-11-11T23:17:57;102643.44;;;5.29;99.09
57234;BME280;43090;52.604;13.318;2022-11-11T23:20:24;102608.66;;;4.95;99.30
57234;BME280;43090;52.604;13.318;2022-11-11T23:22:50;102659.47;;;5.23;99.01
57234;BME280;43090;52.604;13.318;2022-11-11T23:25:17;102650.97;;;5.03;100.00
57234;BME280;43090;52.604;13.318;2022-11-11T23:27:43;102663.19;;;5.13;99.81
57234;BME280;43090;52.604;13.318;2022-11-11T23:30:10;102622.94;;;4.88;100.00
57234;BME280;43090;52.604;13.318;2022-11-11T23:32:42;102633.16;;;5.11;99.61
57234;BME280;43090;52.604;13.318;2022-11-11T23:42:00;102599.34;;;4.69;100.00
57234;BME280;43090;52.604;13.318;2022-11-11T23:44:42;102602.44;;;4.96;99.55
57234;BME280;43090;52.604;13.318;2022-11-11T23:48:23;102656.16;;;5.10;99.66
57234;BME280;43090;52.604;13.318;2022-11-11T23:55:15;102593.38;;;4.56;100.00
